Centenario Blu — 3FXD7 — position and weather

sailwx.info

Track history (hours):
 
Tides and Currents Weather Stations Pressure Air Temp Water Temp Dewpoint Dewpoint Depression Visibility Wind Speed Wind Dir Waves Ship Positions

Centenario Blu

Last reported at 2016-Jul-02 10:07 UTC. Time now 2016-Jul-26 02:33 UTC.
Position N 01°15' E 104°06'.
Warning: this ship's position is 23 days out of date.

Length 190 m; draft 12.8 m.

Type: Cargo ship. MMSI: 356832000.

Date/timePositionNaut miles runAvg speedWind from/ knotsBaromVisibWave heightAir tempDewpointWater temp
2016-Jul-02 10:07N 01°15' E 104°06'5 9.2
2016-Jul-02 09:33N 01°15' E 104°01'4 4.1
2016-Jul-02 08:28N 01°17' E 103°57'0 0.0
2016-Jul-02 07:07N 01°17' E 103°57'0 0.0
2016-Jul-02 06:22N 01°17' E 103°57'0 0.0
2016-Jul-02 04:22N 01°17' E 103°57'0 0.0
2016-Jul-02 03:07N 01°17' E 103°57'0 0.0
2016-Jul-02 02:31N 01°17' E 103°57'0 0.1
2016-Jul-02 01:28N 01°17' E 103°57'1 1.2
2016-Jul-02 00:33N 01°16' E 103°56'3 2.9
2016-Jul-01 23:33N 01°13' E 103°56'5 4.8
2016-Jul-01 22:32N 01°11' E 103°52'5 4.8
2016-Jul-01 21:33N 01°09' E 103°47'  
Track history (hours):
 
Tides and Currents Weather Stations Pressure Air Temp Water Temp Dewpoint Dewpoint Depression Visibility Wind Speed Wind Dir Waves Ship Positions

Centenario Blu

Last reported at 2016-Jul-02 10:07 UTC. Time now 2016-Jul-26 02:33 UTC.
Position N 01°15' E 104°06'.
Warning: this ship's position is 23 days out of date.

Length 190 m; draft 12.8 m.

Type: Cargo ship. MMSI: 356832000.

Date/timePositionNaut miles runAvg speedWind from/ knotsBaromVisibWave heightAir tempDewpointWater temp
2016-Jul-02 10:07N 01°15' E 104°06'5 9.2
2016-Jul-02 09:33N 01°15' E 104°01'4 4.1
2016-Jul-02 08:28N 01°17' E 103°57'0 0.0
2016-Jul-02 07:07N 01°17' E 103°57'0 0.0
2016-Jul-02 06:22N 01°17' E 103°57'0 0.0
2016-Jul-02 04:22N 01°17' E 103°57'0 0.0
2016-Jul-02 03:07N 01°17' E 103°57'0 0.0
2016-Jul-02 02:31N 01°17' E 103°57'0 0.1
2016-Jul-02 01:28N 01°17' E 103°57'1 1.2
2016-Jul-02 00:33N 01°16' E 103°56'3 2.9
2016-Jul-01 23:33N 01°13' E 103°56'5 4.8
2016-Jul-01 22:32N 01°11' E 103°52'5 4.8
2016-Jul-01 21:33N 01°09' E 103°47'  

Dump ship's entire track history